Decoded Metar for KPSX (PALACIOS in TX, USA) (IATA:PSX) | Meteo·Mobile Aviation Weather
aviador You're here:

KPSX Decoded Metar

PALACIOS in TX, USA
Report Time2018-11-19 01:53:00
UTC Time2018-11-19 02:37:40
Flight Rules ifr IFR
Wind360° at 12 kt
W.Decomp.*RWY 35: 11.9 kt HW 1.5 kt RCW
RWY 31: 8.2 kt HW 8.8 kt RCW
RWY 08: 1.5 kt HW 11.9 kt LCW
Visibility9999 m
Phenomena:N/A
Clouds:Broken 008 Hf
Overcast 021 Hf
Ceiling800 ft
Temp12°C (ISA -3)
Dew Point12°C (100% RH)
AAT8.3°C
QNH1021 hPa
Density Alt-420 ft
Elevation16 ft
Report Wrong Elevation
Raw Report
KPSX 190153Z AUTO 36012KT 7SM BKN008 OVC021 12/12 A3016 RMK AO2
RAE00B17E30 CIG 005V011 SLP212 P0001 T01170117=

Extra information for KPSX:More info

Metar Taf Metar & Taf Last 4 Metars F.Rules Stats Wind Profile Meteogram Temp Stats Airport Information Weather charts Add Link Nearby VenuesMetar ALERT Operation Metar Decoded Social comments

AIRNAV info for KPSX